Wimauma, Florida
Current Conditions -  °F | °C
As of 2:58 AM on Monday 26 Jan 2015 (Local Time) from KMCF Reporting Station
Overcast Overcast  
Wind Chill: 62°   Ceiling: 18000
Heat Index: 62°   Visibility: 10mi
Dew Point: 60°   Wind: 6mph
Humidity: 93%   Direction: 170°S
Pressure: 29.87"   Gusts: NA
Location:  27.71°N, 82.3°W
Report Text: KMCF 260758Z AUTO 17005KT 10SM OVC180 17/16 A2987 RMK AO2 SLP118 T01680157
Loading
Personal Weather Stations






























Interactive Weather Map New forecast layout! Learn more

10-Day Weather Forecast

Advertisements
Track Severe Weather on mobile